createdAt,value
2019-02-23T00:01:57.083Z,103064.53
2019-02-23T00:04:59.001Z,103067.52
2019-02-23T00:08:00.945Z,103068.11
2019-02-23T00:11:02.875Z,103071.01
2019-02-23T00:14:04.722Z,103080.98
2019-02-23T00:17:06.718Z,103080.35
2019-02-23T00:20:08.714Z,103078.73
2019-02-23T00:23:10.630Z,103081.64
2019-02-23T00:26:12.496Z,103077.83
2019-02-23T00:29:14.385Z,103090.30
2019-02-23T00:32:16.342Z,103095.85
2019-02-23T00:35:18.246Z,103090.83
2019-02-23T00:38:20.282Z,103090.91
2019-02-23T00:41:22.209Z,103091.52
2019-02-23T00:44:24.127Z,103086.25
2019-02-23T00:47:26.018Z,103100.52
2019-02-23T00:50:27.991Z,103107.72
2019-02-23T00:53:29.867Z,103098.05
2019-02-23T00:56:31.821Z,103100.73
2019-02-23T00:59:33.765Z,103091.92
2019-02-23T01:02:35.716Z,103095.94
2019-02-23T01:05:37.599Z,103095.67
2019-02-23T01:08:39.615Z,103089.94
2019-02-23T01:11:41.674Z,103093.33
2019-02-23T01:14:43.657Z,103102.92
2019-02-23T01:17:45.704Z,103102.95
2019-02-23T01:20:47.616Z,103102.58
2019-02-23T01:23:49.488Z,103092.83
2019-02-23T01:26:51.422Z,103096.66
2019-02-23T01:29:53.340Z,103092.64
2019-02-23T01:32:55.318Z,103087.48
2019-02-23T01:35:57.226Z,103083.67
2019-02-23T01:38:59.255Z,103076.97
2019-02-23T01:42:01.133Z,103075.27
2019-02-23T01:45:05.626Z,103071.81
2019-02-23T01:48:07.550Z,103076.53
2019-02-23T01:51:09.583Z,103081.34
2019-02-23T01:54:11.543Z,103078.38
2019-02-23T01:57:13.539Z,103071.68
2019-02-23T02:00:16.656Z,103080.70
2019-02-23T02:03:18.524Z,103084.11
2019-02-23T02:06:20.594Z,103068.63
2019-02-23T02:09:22.619Z,103072.95
2019-02-23T02:12:24.664Z,103071.33
2019-02-23T02:15:27.503Z,103063.28
2019-02-23T02:18:29.470Z,103055.36
2019-02-23T02:21:31.413Z,103050.95
2019-02-23T02:24:33.338Z,103042.05
2019-02-23T02:27:35.334Z,103038.61
2019-02-23T02:30:37.313Z,103027.03
2019-02-23T02:34:08.015Z,103027.88
2019-02-23T02:37:09.952Z,103043.23
2019-02-23T02:40:12.128Z,103043.97
2019-02-23T02:43:13.995Z,103050.79
2019-02-23T02:46:15.979Z,103062.36
2019-02-23T02:49:17.873Z,103054.60
2019-02-23T02:52:19.882Z,103056.95
2019-02-23T02:55:21.754Z,103063.93
2019-02-23T02:58:23.714Z,103068.02
2019-02-23T03:01:25.543Z,103063.22
2019-02-23T03:04:27.499Z,103052.47
2019-02-23T03:07:29.435Z,103068.92
2019-02-23T03:10:31.416Z,103072.80
2019-02-23T03:13:34.614Z,103077.75
2019-02-23T03:16:36.715Z,103073.58
2019-02-23T03:19:38.701Z,103064.41
2019-02-23T03:22:40.616Z,103071.68
2019-02-23T03:25:42.595Z,103073.38
2019-02-23T03:28:44.553Z,103071.03
2019-02-23T03:31:46.535Z,103055.16
2019-02-23T03:34:48.504Z,103054.88
2019-02-23T03:37:50.431Z,103061.67
2019-02-23T03:40:52.384Z,103060.45
2019-02-23T03:43:54.354Z,103063.70
2019-02-23T03:46:56.265Z,103051.57
2019-02-23T03:49:58.267Z,103038.09
2019-02-23T03:53:00.108Z,103036.97
2019-02-23T03:56:02.293Z,103027.22
2019-02-23T03:59:04.203Z,103036.69
2019-02-23T04:02:06.173Z,103036.31
2019-02-23T04:05:08.155Z,103033.44
2019-02-23T04:08:10.222Z,103032.31
2019-02-23T04:11:12.173Z,103035.96
2019-02-23T04:14:14.057Z,103024.97
2019-02-23T04:17:16.671Z,103003.25
2019-02-23T04:20:18.691Z,102994.38
2019-02-23T04:23:20.691Z,102993.03
2019-02-23T04:26:22.634Z,102990.27
2019-02-23T04:29:24.584Z,102995.51
2019-02-23T04:32:26.537Z,103002.33
2019-02-23T04:35:28.474Z,102992.66
2019-02-23T04:38:30.465Z,102996.69
2019-02-23T04:41:32.438Z,102997.74
2019-02-23T04:44:34.430Z,102996.89
2019-02-23T04:47:36.349Z,103005.86
2019-02-23T04:50:38.279Z,103004.73
2019-02-23T04:53:40.165Z,103016.78
2019-02-23T04:56:42.193Z,103030.09
2019-02-23T04:59:44.102Z,103023.02
2019-02-23T05:02:46.110Z,103038.21
2019-02-23T05:05:47.992Z,103024.08
2019-02-23T05:08:49.969Z,103019.78
2019-02-23T05:11:52.042Z,103011.83
2019-02-23T05:14:53.974Z,102996.37
2019-02-23T05:17:57.354Z,102978.08
2019-02-23T05:20:59.384Z,102987.00
2019-02-23T05:24:01.287Z,103017.19
2019-02-23T05:27:03.218Z,103028.75
2019-02-23T05:30:08.219Z,103023.31
2019-02-23T05:33:10.084Z,103033.05
2019-02-23T05:36:12.060Z,103045.67
2019-02-23T05:39:13.977Z,103058.86
2019-02-23T05:42:16.424Z,103059.80
2019-02-23T05:45:18.345Z,103045.78
2019-02-23T05:48:20.295Z,103047.31
2019-02-23T05:51:22.211Z,103046.30
2019-02-23T05:54:24.183Z,103039.02
2019-02-23T05:57:26.099Z,103023.37
2019-02-23T06:00:27.990Z,103038.38
2019-02-23T06:03:30.193Z,103045.43
2019-02-23T06:06:32.140Z,103042.52
2019-02-23T06:09:34.150Z,103053.44
2019-02-23T06:12:36.222Z,103054.14
2019-02-23T06:15:38.187Z,103052.64
2019-02-23T06:18:40.320Z,103067.80
2019-02-23T06:21:52.827Z,103072.73
2019-02-23T06:24:46.506Z,103078.44
2019-02-23T06:27:48.375Z,103086.48
2019-02-23T06:30:50.391Z,103098.05
2019-02-23T06:33:52.311Z,103088.98
2019-02-23T06:36:54.210Z,103101.16
2019-02-23T06:39:56.332Z,103099.96
2019-02-23T06:43:01.449Z,103112.45
2019-02-23T06:56:58.442Z,103084.03
2019-02-23T07:00:00.752Z,103094.93
2019-02-23T07:03:03.216Z,103103.28
2019-02-23T07:09:45.725Z,103106.34
2019-02-23T07:12:48.849Z,103110.52
2019-02-23T07:23:58.018Z,103144.47
2019-02-23T07:27:00.304Z,103146.04
2019-02-23T07:30:02.893Z,103147.65
2019-02-23T07:34:14.365Z,103149.88
2019-02-23T07:37:16.299Z,103151.44
2019-02-23T07:40:18.255Z,103155.98
2019-02-23T07:43:20.156Z,103163.13
2019-02-23T07:46:22.152Z,103173.61
2019-02-23T07:49:24.033Z,103174.54
2019-02-23T07:52:26.808Z,103170.92
2019-02-23T07:55:29.038Z,103173.83
2019-02-23T07:58:31.029Z,103169.05
2019-02-23T08:01:32.894Z,103171.52
2019-02-23T08:04:34.814Z,103172.98
2019-02-23T08:07:36.716Z,103169.10
2019-02-23T08:10:38.667Z,103175.65
2019-02-23T08:13:40.842Z,103169.81
2019-02-23T08:16:43.021Z,103161.02
2019-02-23T08:19:46.336Z,103169.11
2019-02-23T08:22:48.256Z,103163.17
2019-02-23T08:25:50.215Z,103150.21
2019-02-23T08:28:52.262Z,103146.44
2019-02-23T08:31:54.213Z,103147.63
2019-02-23T08:34:56.084Z,103169.90
2019-02-23T08:37:58.433Z,103183.05
2019-02-23T08:41:00.414Z,103194.25
2019-02-23T08:44:02.344Z,103192.94
2019-02-23T08:47:04.530Z,103200.53
2019-02-23T08:50:11.938Z,103204.79
2019-02-23T08:53:14.993Z,103198.98
2019-02-23T08:56:16.863Z,103192.17
2019-02-23T08:59:18.905Z,103196.14
2019-02-23T09:02:20.760Z,103185.07
2019-02-23T09:05:22.869Z,103183.28
2019-02-23T09:08:24.832Z,103182.13
2019-02-23T09:11:27.193Z,103174.18
2019-02-23T09:14:30.477Z,103173.67
2019-02-23T09:17:32.418Z,103152.59
2019-02-23T09:20:34.305Z,103150.08
2019-02-23T09:23:36.217Z,103155.73
2019-02-23T09:26:38.081Z,103156.53
2019-02-23T09:29:40.234Z,103165.42
2019-02-23T09:32:42.220Z,103154.46
2019-02-23T09:35:44.198Z,103147.34
2019-02-23T09:38:46.158Z,103137.02
2019-02-23T09:41:48.065Z,103142.11
2019-02-23T09:44:50.142Z,103150.49
2019-02-23T09:47:52.106Z,103140.55
2019-02-23T09:50:53.947Z,103135.36
2019-02-23T09:53:55.866Z,103134.77
2019-02-23T09:56:57.772Z,103126.22
2019-02-23T09:59:59.766Z,103125.95
2019-02-23T10:03:01.651Z,103125.52
2019-02-23T10:06:03.589Z,103129.37
2019-02-23T10:09:05.539Z,103128.34
2019-02-23T10:12:07.957Z,103129.03
2019-02-23T10:15:10.518Z,103114.20
2019-02-23T10:18:12.491Z,103100.04
2019-02-23T10:21:14.376Z,103095.93
2019-02-23T10:24:16.347Z,103101.84
2019-02-23T10:27:18.307Z,103091.66
2019-02-23T10:30:20.523Z,103105.64
2019-02-23T10:33:22.422Z,103100.91
2019-02-23T10:36:24.344Z,103084.58
2019-02-23T10:39:26.369Z,103085.78
2019-02-23T10:42:28.376Z,103066.31
2019-02-23T10:45:30.256Z,103072.23
2019-02-23T10:48:32.138Z,103070.31
2019-02-23T10:51:34.092Z,103069.53
2019-02-23T10:54:36.035Z,103065.87
2019-02-23T10:57:38.060Z,103061.74
2019-02-23T11:00:40.031Z,103070.51
2019-02-23T11:03:42.175Z,103073.83
2019-02-23T11:06:44.197Z,103069.77
2019-02-23T11:09:46.483Z,103070.83
2019-02-23T11:12:48.430Z,103061.00
2019-02-23T11:15:50.313Z,103050.80
2019-02-23T11:18:52.195Z,103042.30
2019-02-23T11:21:54.490Z,103046.74
2019-02-23T11:24:56.417Z,103044.70
2019-02-23T11:27:58.499Z,103034.81
2019-02-23T11:31:00.447Z,103047.26
2019-02-23T11:34:02.401Z,103044.70
2019-02-23T11:37:04.331Z,103044.34
2019-02-23T11:40:09.067Z,103041.86
2019-02-23T11:43:11.165Z,103034.91
2019-02-23T11:46:13.568Z,103028.25
2019-02-23T11:49:15.703Z,103016.23
2019-02-23T11:52:17.674Z,103013.84
2019-02-23T11:55:19.698Z,103009.77
2019-02-23T11:58:21.609Z,103027.50
2019-02-23T12:01:23.529Z,103012.18
2019-02-23T12:04:25.591Z,103014.91
2019-02-23T12:07:27.598Z,103018.38
2019-02-23T12:10:29.818Z,103014.63
2019-02-23T12:13:31.985Z,103008.50
2019-02-23T12:16:33.880Z,103013.27
2019-02-23T12:19:35.902Z,103005.96
2019-02-23T12:22:37.881Z,103013.09
2019-02-23T12:25:39.791Z,103004.42
2019-02-23T12:28:43.906Z,102995.68
2019-02-23T12:31:46.018Z,102992.96
2019-02-23T12:34:47.902Z,102999.57
2019-02-23T12:37:49.842Z,102997.51
2019-02-23T12:40:51.752Z,103003.33
2019-02-23T12:43:53.755Z,103003.66
2019-02-23T12:46:55.758Z,103006.32
2019-02-23T12:49:57.758Z,102991.73
2019-02-23T12:52:59.935Z,102991.48
2019-02-23T12:56:01.993Z,102998.89
2019-02-23T12:59:03.902Z,102990.78
2019-02-23T13:02:06.001Z,102988.28
2019-02-23T13:05:07.980Z,102979.86
2019-02-23T13:08:10.012Z,102975.11
2019-02-23T13:11:11.951Z,102974.98
2019-02-23T13:14:29.706Z,102981.31
2019-02-23T13:17:50.348Z,102973.48
2019-02-23T13:20:58.753Z,102969.76
2019-02-23T13:24:28.214Z,102971.94
2019-02-23T13:27:32.623Z,102976.47
2019-02-23T13:30:57.619Z,102973.24
2019-02-23T13:34:03.309Z,102976.32
2019-02-23T13:37:11.827Z,102967.64
2019-02-23T13:40:34.505Z,102963.25
2019-02-23T13:43:46.112Z,102959.69
2019-02-23T13:47:06.255Z,102957.13
2019-02-23T13:50:33.338Z,102962.20
2019-02-23T13:53:53.880Z,102956.38
2019-02-23T13:57:16.107Z,102958.33
2019-02-23T14:00:39.617Z,102972.59
2019-02-23T14:04:09.383Z,102968.75
2019-02-23T14:07:36.485Z,102953.97
2019-02-23T14:10:44.916Z,102954.29
2019-02-23T14:14:20.861Z,102954.02
2019-02-23T14:17:31.809Z,102944.09
2019-02-23T14:20:54.017Z,102944.05
2019-02-23T14:24:17.795Z,102945.72
2019-02-23T14:27:32.445Z,102937.77
2019-02-23T14:30:49.856Z,102942.45
2019-02-23T14:34:14.840Z,102943.29
2019-02-23T14:37:40.133Z,102939.95
2019-02-23T14:41:07.261Z,102943.33
2019-02-23T14:44:38.577Z,102941.84
2019-02-23T14:48:09.453Z,102929.46
2019-02-23T14:51:33.782Z,102938.97
2019-02-23T14:55:06.958Z,102940.85
2019-02-23T14:58:36.501Z,102932.67
2019-02-23T15:01:45.148Z,102926.54
2019-02-23T15:05:02.592Z,102931.97
2019-02-23T15:08:14.171Z,102933.59
2019-02-23T15:11:51.600Z,102929.70
2019-02-23T15:15:06.261Z,102925.45
2019-02-23T15:18:32.208Z,102929.12
2019-02-23T15:21:37.758Z,102923.34
2019-02-23T15:24:52.382Z,102918.64
2019-02-23T15:28:37.718Z,102906.44
2019-02-23T15:31:58.962Z,102903.41
2019-02-23T15:35:13.973Z,102886.78
2019-02-23T15:38:36.476Z,102889.91
2019-02-23T15:42:03.437Z,102878.27
2019-02-23T15:45:32.032Z,102873.59
2019-02-23T15:48:46.701Z,102860.75
2019-02-23T15:51:48.710Z,102855.87
2019-02-23T15:54:50.607Z,102863.11
2019-02-23T15:57:52.535Z,102860.92
2019-02-23T16:00:54.602Z,102858.75
2019-02-23T16:03:56.623Z,102868.81
2019-02-23T16:06:58.533Z,102864.88
2019-02-23T16:10:01.580Z,102859.72
2019-02-23T16:13:03.626Z,102863.73
2019-02-23T16:16:05.579Z,102865.66
2019-02-23T16:19:07.471Z,102862.18
2019-02-23T16:22:09.358Z,102856.46
2019-02-23T16:25:11.304Z,102872.30
2019-02-23T16:28:13.201Z,102864.67
2019-02-23T16:31:15.159Z,102860.36
2019-02-23T16:34:17.077Z,102861.07
2019-02-23T16:37:19.044Z,102861.78
2019-02-23T16:40:21.248Z,102859.83
2019-02-23T16:43:23.139Z,102854.61
2019-02-23T16:46:26.351Z,102855.77
2019-02-23T16:49:28.342Z,102847.56
2019-02-23T16:52:30.272Z,102849.39
2019-02-23T16:55:32.279Z,102842.75
2019-02-23T16:58:34.183Z,102831.52
2019-02-23T17:01:36.183Z,102841.08
2019-02-23T17:04:38.085Z,102837.83
2019-02-23T17:07:40.078Z,102843.20
2019-02-23T17:10:42.575Z,102847.48
2019-02-23T17:13:44.582Z,102849.39
2019-02-23T17:16:46.592Z,102845.25
2019-02-23T17:19:48.657Z,102842.12
2019-02-23T17:22:50.609Z,102850.53
2019-02-23T17:26:04.856Z,102856.11
2019-02-23T17:28:56.435Z,102854.70
2019-02-23T17:31:58.467Z,102858.62
2019-02-23T17:35:00.581Z,102853.94
2019-02-23T17:38:15.473Z,102856.70
2019-02-23T17:41:06.716Z,102854.84
2019-02-23T17:44:08.983Z,102854.55
2019-02-23T17:47:10.995Z,102849.00
2019-02-23T17:50:12.997Z,102850.65
2019-02-23T17:53:14.896Z,102845.83
2019-02-23T17:56:18.221Z,102833.23
2019-02-23T17:59:20.225Z,102830.38
2019-02-23T18:02:22.160Z,102828.26
2019-02-23T18:05:24.141Z,102820.86
2019-02-23T18:08:26.451Z,102817.94
2019-02-23T18:11:29.147Z,102805.38
2019-02-23T18:14:31.053Z,102806.64
2019-02-23T18:17:34.686Z,102798.81
2019-02-23T18:20:38.616Z,102788.23
2019-02-23T18:23:41.732Z,102780.39
2019-02-23T18:26:43.719Z,102788.56
2019-02-23T18:29:45.622Z,102786.02
2019-02-23T18:32:48.865Z,102789.73
2019-02-23T18:35:50.743Z,102785.68
2019-02-23T18:38:52.702Z,102783.10
2019-02-23T18:41:54.764Z,102778.92
2019-02-23T18:44:56.688Z,102778.48
2019-02-23T18:47:58.620Z,102781.73
2019-02-23T18:51:02.628Z,102774.00
2019-02-23T18:54:04.490Z,102780.39
2019-02-23T18:57:09.384Z,102784.04
2019-02-23T19:00:13.240Z,102783.27
2019-02-23T19:03:16.260Z,102784.18
2019-02-23T19:06:20.630Z,102797.88
2019-02-23T19:09:24.826Z,102801.88
2019-02-23T19:12:33.148Z,102801.38
2019-02-23T19:15:38.601Z,102816.02
2019-02-23T19:18:41.735Z,102809.88
2019-02-23T19:21:43.760Z,102808.31
2019-02-23T19:24:45.695Z,102807.59
2019-02-23T19:27:50.249Z,102787.89
2019-02-23T19:30:56.020Z,102780.70
2019-02-23T19:33:58.104Z,102766.85
2019-02-23T19:37:01.839Z,102762.74
2019-02-23T19:40:07.219Z,102756.23
2019-02-23T19:43:09.713Z,102756.05
2019-02-23T19:46:11.726Z,102747.73
2019-02-23T19:49:13.651Z,102755.33
2019-02-23T19:52:17.585Z,102740.60
2019-02-23T19:55:19.520Z,102740.53
2019-02-23T19:58:21.741Z,102736.48
2019-02-23T20:01:23.896Z,102736.05
2019-02-23T20:04:26.538Z,102740.38
2019-02-23T20:07:28.523Z,102736.45
2019-02-23T20:10:30.602Z,102724.45
2019-02-23T20:13:34.477Z,102736.60
2019-02-23T20:16:36.351Z,102739.58
2019-02-23T20:19:38.293Z,102745.95
2019-02-23T20:22:40.229Z,102740.70
2019-02-23T20:25:44.097Z,102748.92
2019-02-23T20:28:46.234Z,102748.92
2019-02-23T20:31:48.190Z,102757.91
2019-02-23T20:34:51.906Z,102765.50
2019-02-23T20:37:54.184Z,102770.05
2019-02-23T20:40:57.129Z,102769.44
2019-02-23T20:43:59.276Z,102768.59
2019-02-23T20:47:03.993Z,102760.66
2019-02-23T20:50:14.679Z,102765.67
2019-02-23T20:53:16.631Z,102767.92
2019-02-23T20:56:19.889Z,102757.78
2019-02-23T20:59:22.980Z,102754.70
2019-02-23T21:02:27.190Z,102748.61
2019-02-23T21:05:29.582Z,102747.04
2019-02-23T21:08:31.552Z,102733.59
2019-02-23T21:11:34.882Z,102730.52
2019-02-23T21:14:36.947Z,102739.97
2019-02-23T21:17:40.548Z,102729.83
2019-02-23T21:20:42.930Z,102729.33
2019-02-23T21:23:44.778Z,102720.01
2019-02-23T21:26:48.305Z,102712.19
2019-02-23T21:29:50.214Z,102713.70
2019-02-23T21:32:54.416Z,102720.21
2019-02-23T21:35:56.323Z,102715.78
2019-02-23T21:38:58.271Z,102710.20
2019-02-23T21:42:00.432Z,102718.69
2019-02-23T21:45:04.125Z,102717.84
2019-02-23T21:48:06.047Z,102720.26
2019-02-23T21:51:07.989Z,102728.47
2019-02-23T21:54:10.776Z,102727.77
2019-02-23T21:57:21.790Z,102719.58
2019-02-23T22:00:17.001Z,102718.11
2019-02-23T22:03:19.141Z,102720.58
2019-02-23T22:06:21.035Z,102710.87
2019-02-23T22:09:22.964Z,102701.33
2019-02-23T22:12:24.867Z,102711.27
2019-02-23T22:15:26.909Z,102706.37
2019-02-23T22:18:28.784Z,102708.11
2019-02-23T22:21:30.947Z,102720.05
2019-02-23T22:24:32.820Z,102713.20
2019-02-23T22:27:34.816Z,102713.81
2019-02-23T22:30:36.742Z,102717.05
2019-02-23T22:33:38.666Z,102715.13
2019-02-23T22:36:40.580Z,102723.09
2019-02-23T22:39:42.459Z,102735.42
2019-02-23T22:42:45.508Z,102732.26
2019-02-23T22:45:47.658Z,102743.00
2019-02-23T22:48:49.625Z,102737.19
2019-02-23T22:51:51.512Z,102739.34
2019-02-23T22:54:53.448Z,102728.47
2019-02-23T22:57:55.304Z,102716.17
2019-02-23T23:01:04.424Z,102712.92
2019-02-23T23:04:08.161Z,102705.45
2019-02-23T23:07:10.129Z,102706.11
2019-02-23T23:10:12.077Z,102710.50
2019-02-23T23:13:14.026Z,102713.54
2019-02-23T23:16:16.036Z,102720.94
2019-02-23T23:19:17.931Z,102721.56
2019-02-23T23:22:19.855Z,102716.94
2019-02-23T23:25:21.735Z,102702.95
2019-02-23T23:28:24.216Z,102702.95
2019-02-23T23:31:28.317Z,102702.06
2019-02-23T23:34:30.689Z,102691.12
2019-02-23T23:37:33.607Z,102696.73
2019-02-23T23:40:36.929Z,102688.57
2019-02-23T23:43:38.877Z,102676.91
2019-02-23T23:46:42.160Z,102680.10
2019-02-23T23:49:44.671Z,102688.97
2019-02-23T23:52:46.622Z,102688.81
2019-02-23T23:55:48.570Z,102685.05
2019-02-23T23:58:50.444Z,102680.66
